createdAt,value
2022-10-01T00:01:26.502Z,13.4
2022-10-01T00:02:26.422Z,13.4
2022-10-01T00:03:26.352Z,13.4
2022-10-01T00:04:26.349Z,13.4
2022-10-01T00:05:26.348Z,13.4
2022-10-01T00:06:26.340Z,13.4
2022-10-01T00:07:26.340Z,13.4
2022-10-01T00:08:26.349Z,13.4
2022-10-01T00:09:26.397Z,13.5
2022-10-01T00:10:26.345Z,13.5
2022-10-01T00:11:26.357Z,13.5
2022-10-01T00:12:26.354Z,13.5
2022-10-01T00:13:26.339Z,13.5
2022-10-01T00:14:26.347Z,13.4
2022-10-01T00:15:26.348Z,13.3
2022-10-01T00:16:26.429Z,13.4
2022-10-01T00:17:26.346Z,13.4
2022-10-01T00:18:26.350Z,13.3
2022-10-01T00:19:26.347Z,13.3
2022-10-01T00:20:26.350Z,13.3
2022-10-01T00:22:28.590Z,13.1
2022-10-01T00:23:26.351Z,13.1
2022-10-01T00:24:26.442Z,13
2022-10-01T00:25:34.675Z,13
2022-10-01T00:26:34.680Z,13
2022-10-01T00:27:34.679Z,12.9
2022-10-01T00:28:26.430Z,12.9
2022-10-01T00:29:26.356Z,12.9
2022-10-01T00:30:26.334Z,12.8
2022-10-01T00:31:26.488Z,12.7
2022-10-01T00:32:26.342Z,12.7
2022-10-01T00:34:26.345Z,12.6
2022-10-01T00:35:26.360Z,12.5
2022-10-01T00:36:26.342Z,12.5
2022-10-01T00:37:26.347Z,12.6
2022-10-01T00:38:26.352Z,12.6
2022-10-01T00:39:26.352Z,12.5
2022-10-01T00:40:26.374Z,12.3
2022-10-01T00:41:26.396Z,12.3
2022-10-01T00:43:26.347Z,12.3
2022-10-01T00:44:26.350Z,12.3
2022-10-01T00:45:26.521Z,12.3
2022-10-01T00:46:26.345Z,12.3
2022-10-01T00:47:26.345Z,12.3
2022-10-01T00:48:26.396Z,12.2
2022-10-01T00:49:26.350Z,12.1
2022-10-01T00:50:26.357Z,12.2
2022-10-01T00:51:26.350Z,12.2
2022-10-01T00:52:26.348Z,12.2
2022-10-01T00:53:26.349Z,12.1
2022-10-01T00:54:26.364Z,12.1
2022-10-01T00:56:26.350Z,12.1
2022-10-01T00:57:26.351Z,12.1
2022-10-01T00:58:26.355Z,12.2
2022-10-01T00:59:26.336Z,12.2
2022-10-01T01:00:26.356Z,12.2
2022-10-01T01:01:26.406Z,12.2
2022-10-01T01:02:26.389Z,12.1
2022-10-01T01:04:26.355Z,12.1
2022-10-01T01:05:26.423Z,12
2022-10-01T01:06:26.345Z,12
2022-10-01T01:07:26.354Z,11.9
2022-10-01T01:08:26.373Z,11.9
2022-10-01T01:09:26.347Z,11.8
2022-10-01T01:10:26.334Z,11.9
2022-10-01T01:11:26.372Z,11.9
2022-10-01T01:12:26.366Z,11.9
2022-10-01T01:13:26.353Z,11.9
2022-10-01T01:14:26.353Z,11.8
2022-10-01T01:15:34.648Z,11.9
2022-10-01T01:16:26.359Z,11.8
2022-10-01T01:17:26.390Z,11.8
2022-10-01T01:18:26.356Z,11.7
2022-10-01T01:19:26.354Z,11.7
2022-10-01T01:20:26.353Z,11.7
2022-10-01T01:21:26.348Z,11.7
2022-10-01T01:22:26.418Z,11.7
2022-10-01T01:23:26.383Z,11.6
2022-10-01T01:24:26.356Z,11.6
2022-10-01T01:25:26.360Z,11.6
2022-10-01T01:26:26.356Z,11.6
2022-10-01T01:27:26.354Z,11.7
2022-10-01T01:28:26.430Z,11.7
2022-10-01T01:29:26.356Z,11.7
2022-10-01T01:30:26.355Z,11.7
2022-10-01T01:31:26.381Z,11.7
2022-10-01T01:32:26.352Z,11.7
2022-10-01T01:33:26.384Z,11.7
2022-10-01T01:34:26.468Z,11.6
2022-10-01T01:36:26.357Z,11.6
2022-10-01T01:37:26.355Z,11.6
2022-10-01T01:38:26.379Z,11.7
2022-10-01T01:39:26.347Z,11.7
2022-10-01T01:40:26.356Z,11.7
2022-10-01T01:42:26.377Z,11.6
2022-10-01T01:43:26.368Z,11.7
2022-10-01T01:44:26.354Z,11.6
2022-10-01T01:45:26.360Z,11.6
2022-10-01T01:46:26.359Z,11.6
2022-10-01T01:47:26.357Z,11.7
2022-10-01T01:48:26.355Z,11.7
2022-10-01T01:49:26.354Z,11.7
2022-10-01T01:50:26.354Z,11.6
2022-10-01T01:51:26.413Z,11.6
2022-10-01T01:52:26.352Z,11.7
2022-10-01T01:53:26.380Z,11.6
2022-10-01T01:54:26.772Z,11.6
2022-10-01T01:55:26.358Z,11.6
2022-10-01T01:57:26.355Z,11.6
2022-10-01T01:58:26.419Z,11.6
2022-10-01T01:59:26.480Z,11.6
2022-10-01T02:00:26.356Z,11.6
2022-10-01T02:01:26.386Z,11.6
2022-10-01T02:02:34.750Z,11.6
2022-10-01T02:03:34.682Z,11.7
2022-10-01T02:05:26.359Z,11.7
2022-10-01T02:06:26.357Z,11.7
2022-10-01T02:07:26.355Z,11.6
2022-10-01T02:08:26.352Z,11.6
2022-10-01T02:09:26.351Z,11.6
2022-10-01T02:10:26.421Z,11.7
2022-10-01T02:11:26.358Z,11.6
2022-10-01T02:12:26.357Z,11.6
2022-10-01T02:13:26.374Z,11.6
2022-10-01T02:14:26.394Z,11.6
2022-10-01T02:15:26.359Z,11.5
2022-10-01T02:16:26.474Z,11.6
2022-10-01T02:18:26.355Z,11.6
2022-10-01T02:19:26.353Z,11.6
2022-10-01T02:20:26.358Z,11.6
2022-10-01T02:21:26.363Z,11.6
2022-10-01T02:22:26.354Z,11.7
2022-10-01T02:24:26.360Z,11.6
2022-10-01T02:25:26.370Z,11.4
2022-10-01T02:26:26.363Z,11.4
2022-10-01T02:27:26.358Z,11.4
2022-10-01T02:29:26.361Z,11.4
2022-10-01T02:30:26.358Z,11.3
2022-10-01T02:31:26.401Z,11.4
2022-10-01T02:32:26.397Z,11.4
2022-10-01T02:33:26.353Z,11.3
2022-10-01T02:34:26.370Z,11.4
2022-10-01T02:35:26.352Z,11.3
2022-10-01T02:37:26.357Z,11.3
2022-10-01T02:38:26.359Z,11.3
2022-10-01T02:39:26.373Z,11.3
2022-10-01T02:40:26.367Z,11.3
2022-10-01T02:41:26.359Z,11.3
2022-10-01T02:42:26.414Z,11.3
2022-10-01T02:43:26.362Z,11.3
2022-10-01T02:44:26.460Z,11.3
2022-10-01T02:45:26.361Z,11.3
2022-10-01T02:46:26.354Z,11.3
2022-10-01T02:47:26.362Z,11.3
2022-10-01T02:48:26.352Z,11.3
2022-10-01T02:50:26.352Z,11.3
2022-10-01T02:51:26.366Z,11.3
2022-10-01T02:52:26.441Z,11.2
2022-10-01T02:53:34.702Z,11.2
2022-10-01T02:54:34.680Z,11.3
2022-10-01T02:55:34.684Z,11.2
2022-10-01T02:56:26.374Z,11.2
2022-10-01T02:57:26.367Z,11.2
2022-10-01T02:58:26.362Z,11.2
2022-10-01T02:59:26.407Z,11.3
2022-10-01T03:00:26.357Z,11.3
2022-10-01T03:02:26.436Z,11.3
2022-10-01T03:03:26.356Z,11.2
2022-10-01T03:04:26.354Z,11.3
2022-10-01T03:05:26.381Z,11.3
2022-10-01T03:06:26.358Z,11.3
2022-10-01T03:07:26.355Z,11.3
2022-10-01T03:08:26.355Z,11.2
2022-10-01T03:09:26.364Z,11.2
2022-10-01T03:11:26.361Z,11.2
2022-10-01T03:12:26.351Z,11.2
2022-10-01T03:13:26.363Z,11.2
2022-10-01T03:14:27.510Z,11.2
2022-10-01T03:15:26.380Z,11.2
2022-10-01T03:16:26.402Z,11.2
2022-10-01T03:17:26.358Z,11.3
2022-10-01T03:18:26.357Z,11.2
2022-10-01T03:19:26.359Z,11.3
2022-10-01T03:20:26.362Z,11.2
2022-10-01T03:21:26.360Z,11.1
2022-10-01T03:23:26.360Z,11.1
2022-10-01T03:24:26.357Z,11.2
2022-10-01T03:25:26.379Z,11.1
2022-10-01T03:26:26.426Z,11.1
2022-10-01T03:27:26.361Z,11.1
2022-10-01T03:28:26.426Z,11.2
2022-10-01T03:29:26.366Z,11.2
2022-10-01T03:30:26.361Z,11.2
2022-10-01T03:31:26.401Z,11.1
2022-10-01T03:32:26.365Z,11.1
2022-10-01T03:33:26.351Z,11.1
2022-10-01T03:34:26.360Z,11.1
2022-10-01T03:35:26.358Z,11.1
2022-10-01T03:36:26.363Z,11.1
2022-10-01T03:37:26.367Z,11
2022-10-01T03:38:26.356Z,11.1
2022-10-01T03:39:26.369Z,11.1
2022-10-01T03:40:26.370Z,11.1
2022-10-01T03:41:26.363Z,11.1
2022-10-01T03:43:34.686Z,11
2022-10-01T03:44:34.693Z,11.1
2022-10-01T03:45:34.807Z,11.1
2022-10-01T03:46:34.715Z,11.1
2022-10-01T03:47:34.690Z,11.2
2022-10-01T03:48:34.694Z,11.1
2022-10-01T03:49:34.692Z,11.2
2022-10-01T03:50:34.750Z,11.2
2022-10-01T03:51:34.897Z,11.2
2022-10-01T03:52:34.687Z,11.2
2022-10-01T03:53:34.687Z,11.3
2022-10-01T03:54:34.690Z,11.2
2022-10-01T03:55:34.689Z,11.2
2022-10-01T03:56:34.687Z,11.1
2022-10-01T03:57:34.693Z,11.1
2022-10-01T03:58:34.909Z,11.1
2022-10-01T04:03:26.362Z,11.2
2022-10-01T04:04:26.366Z,11.1
2022-10-01T04:05:26.357Z,11.1
2022-10-01T04:06:26.368Z,11.1
2022-10-01T04:07:26.362Z,11.1
2022-10-01T04:08:26.367Z,11.2
2022-10-01T04:09:26.369Z,11.2
2022-10-01T04:10:26.365Z,11.2
2022-10-01T04:11:26.359Z,11.2
2022-10-01T04:12:26.359Z,11.2
2022-10-01T04:13:26.362Z,11.2
2022-10-01T04:14:26.425Z,11.2
2022-10-01T04:16:26.410Z,11.2
2022-10-01T04:17:26.356Z,11.2
2022-10-01T04:18:26.361Z,11.2
2022-10-01T04:19:26.372Z,11.2
2022-10-01T04:20:26.365Z,11.2
2022-10-01T04:21:26.380Z,11.2
2022-10-01T04:22:26.365Z,11.3
2022-10-01T04:23:26.363Z,11.3
2022-10-01T04:24:26.359Z,11.3
2022-10-01T04:25:26.369Z,11.3
2022-10-01T04:26:26.361Z,11.3
2022-10-01T04:27:26.357Z,11.3
2022-10-01T04:28:26.421Z,11.4
2022-10-01T04:29:26.361Z,11.4
2022-10-01T04:30:26.364Z,11.5
2022-10-01T04:31:26.602Z,11.5
2022-10-01T04:32:26.386Z,11.5
2022-10-01T04:33:26.371Z,11.4
2022-10-01T04:34:26.359Z,11.4
2022-10-01T04:35:26.363Z,11.4
2022-10-01T04:36:26.358Z,11.4
2022-10-01T04:37:26.365Z,11.3
2022-10-01T04:38:26.366Z,11.4
2022-10-01T04:39:26.366Z,11.4
2022-10-01T04:40:26.363Z,11.4
2022-10-01T04:41:26.365Z,11.4
2022-10-01T04:42:26.364Z,11.4
2022-10-01T04:43:26.359Z,11.4
2022-10-01T04:44:26.360Z,11.4
2022-10-01T04:45:26.361Z,11.5
2022-10-01T04:46:26.470Z,11.5
2022-10-01T04:47:26.358Z,11.4
2022-10-01T04:48:26.356Z,11.4
2022-10-01T04:49:34.689Z,11.4
2022-10-01T04:50:34.690Z,11.4
2022-10-01T04:51:35.079Z,11.4
2022-10-01T04:52:34.698Z,11.3
2022-10-01T04:53:34.697Z,11.4
2022-10-01T04:54:34.679Z,11.4
2022-10-01T04:55:34.685Z,11.4
2022-10-01T04:56:34.700Z,11.4
2022-10-01T04:57:34.686Z,11.4
2022-10-01T04:58:34.689Z,11.4
2022-10-01T04:59:34.689Z,11.4
2022-10-01T05:00:34.776Z,11.4
2022-10-01T05:01:35.185Z,11.3
2022-10-01T05:02:34.813Z,11.4
2022-10-01T05:03:34.711Z,11.4
2022-10-01T05:04:34.690Z,11.5
2022-10-01T05:09:30.326Z,11.4
2022-10-01T05:10:26.363Z,11.5
2022-10-01T05:11:26.363Z,11.4
2022-10-01T05:12:26.407Z,11.5
2022-10-01T05:13:26.366Z,11.5
2022-10-01T05:14:26.363Z,11.4
2022-10-01T05:15:26.368Z,11.4
2022-10-01T05:17:26.363Z,11.4
2022-10-01T05:18:26.370Z,11.5
2022-10-01T05:19:28.151Z,11.4
2022-10-01T05:20:26.363Z,11.4
2022-10-01T05:21:26.362Z,11.4
2022-10-01T05:22:26.360Z,11.5
2022-10-01T05:23:26.361Z,11.4
2022-10-01T05:24:26.378Z,11.4
2022-10-01T05:25:26.381Z,11.5
2022-10-01T05:26:26.357Z,11.4
2022-10-01T05:27:26.379Z,11.4
2022-10-01T05:28:26.445Z,11.4
2022-10-01T05:29:26.426Z,11.4
2022-10-01T05:30:26.367Z,11.5
2022-10-01T05:31:26.484Z,11.5
2022-10-01T05:32:26.367Z,11.5
2022-10-01T05:33:26.367Z,11.4
2022-10-01T05:34:26.393Z,11.4
2022-10-01T05:37:26.368Z,11.5
2022-10-01T05:38:26.369Z,11.5
2022-10-01T05:39:26.375Z,11.5
2022-10-01T05:40:26.364Z,11.5
2022-10-01T05:41:26.428Z,11.4
2022-10-01T05:42:26.368Z,11.4
2022-10-01T05:43:26.359Z,11.4
2022-10-01T05:44:26.359Z,11.4
2022-10-01T05:45:26.403Z,11.5
2022-10-01T05:46:26.436Z,11.4
2022-10-01T05:47:26.365Z,11.4
2022-10-01T05:48:26.372Z,11.3
2022-10-01T05:49:26.364Z,11.4
2022-10-01T05:50:26.366Z,11.4
2022-10-01T05:51:26.371Z,11.4
2022-10-01T05:52:26.368Z,11.5
2022-10-01T05:53:26.370Z,11.5
2022-10-01T05:54:26.381Z,11.5
2022-10-01T05:55:26.455Z,11.7
2022-10-01T05:56:34.711Z,11.6
2022-10-01T05:57:34.689Z,11.5
2022-10-01T05:58:34.702Z,11.5
2022-10-01T05:59:34.695Z,11.6
2022-10-01T06:00:26.373Z,11.5
2022-10-01T06:01:26.367Z,11.6
2022-10-01T06:02:26.476Z,11.6
2022-10-01T06:03:26.364Z,11.6
2022-10-01T06:04:26.375Z,11.6
2022-10-01T06:05:26.388Z,11.5
2022-10-01T06:06:26.367Z,11.6
2022-10-01T06:07:26.388Z,11.6
2022-10-01T06:08:26.378Z,11.6
2022-10-01T06:10:26.361Z,11.6
2022-10-01T06:11:26.359Z,11.6
2022-10-01T06:12:26.366Z,11.7
2022-10-01T06:13:26.370Z,11.7
2022-10-01T06:14:26.363Z,11.7
2022-10-01T06:15:26.369Z,11.7
2022-10-01T06:16:26.436Z,11.7
2022-10-01T06:17:26.367Z,11.7
2022-10-01T06:18:26.366Z,11.7
2022-10-01T06:19:26.371Z,11.8
2022-10-01T06:20:26.416Z,11.7
2022-10-01T06:21:26.374Z,11.7
2022-10-01T06:22:26.372Z,11.7
2022-10-01T06:23:26.374Z,11.7
2022-10-01T06:24:26.369Z,11.8
2022-10-01T06:25:26.368Z,11.7
2022-10-01T06:26:26.388Z,11.8
2022-10-01T06:27:26.361Z,11.8
2022-10-01T06:28:26.485Z,11.8
2022-10-01T06:29:26.382Z,11.8
2022-10-01T06:30:26.455Z,11.8
2022-10-01T06:31:26.433Z,11.8
2022-10-01T06:32:26.428Z,11.8
2022-10-01T06:33:26.361Z,11.8
2022-10-01T06:34:26.369Z,11.9
2022-10-01T06:36:26.402Z,11.9
2022-10-01T06:37:26.365Z,11.8
2022-10-01T06:38:26.361Z,11.8
2022-10-01T06:39:26.374Z,11.8
2022-10-01T06:40:26.400Z,11.9
2022-10-01T06:41:26.374Z,12
2022-10-01T06:42:26.362Z,12
2022-10-01T06:43:26.371Z,11.9
2022-10-01T06:44:26.366Z,11.9
2022-10-01T06:45:26.603Z,11.9
2022-10-01T06:46:26.436Z,12
2022-10-01T06:47:34.703Z,11.9
2022-10-01T06:48:34.712Z,12
2022-10-01T06:49:34.674Z,12.1
2022-10-01T06:50:26.433Z,12.1
2022-10-01T06:51:26.369Z,12.1
2022-10-01T06:52:26.359Z,12.1
2022-10-01T06:54:26.410Z,12.1
2022-10-01T06:55:26.374Z,12.1
2022-10-01T06:56:26.360Z,12.1
2022-10-01T06:57:26.372Z,12.1
2022-10-01T06:58:26.371Z,12.2
2022-10-01T06:59:26.368Z,12.1
2022-10-01T07:00:26.370Z,12.1
2022-10-01T07:01:26.462Z,12.1
2022-10-01T07:03:26.368Z,12.1
2022-10-01T07:04:26.370Z,12.1
2022-10-01T07:05:26.375Z,12.1
2022-10-01T07:06:26.373Z,12
2022-10-01T07:07:29.920Z,12.1
2022-10-01T07:09:26.369Z,12.2
2022-10-01T07:12:26.372Z,12.1
2022-10-01T07:13:26.369Z,12.1
2022-10-01T07:14:26.367Z,12.1
2022-10-01T07:15:26.371Z,12.2
2022-10-01T07:16:26.492Z,12.2
2022-10-01T07:18:26.376Z,12.1
2022-10-01T07:19:26.374Z,12.2
2022-10-01T07:20:26.370Z,12.2
2022-10-01T07:21:26.370Z,12.2
2022-10-01T07:22:26.381Z,12.1
2022-10-01T07:23:26.429Z,12.3
2022-10-01T07:24:26.371Z,12.2
2022-10-01T07:25:26.374Z,12.3
2022-10-01T07:26:27.305Z,12.3
2022-10-01T07:27:26.376Z,12.3
2022-10-01T07:28:26.450Z,12.3
2022-10-01T07:29:26.367Z,12.3
2022-10-01T07:30:26.377Z,12.3
2022-10-01T07:31:26.424Z,12.3
2022-10-01T07:32:26.368Z,12.3
2022-10-01T07:33:26.384Z,12.3
2022-10-01T07:34:26.373Z,12.4
2022-10-01T07:35:26.371Z,12.3
2022-10-01T07:36:26.388Z,12.4
2022-10-01T07:37:34.697Z,12.4
2022-10-01T07:38:34.727Z,12.4
2022-10-01T07:39:34.699Z,12.4
2022-10-01T07:40:34.746Z,12.4
2022-10-01T07:41:35.043Z,12.6
2022-10-01T07:42:34.698Z,12.5
2022-10-01T07:43:34.709Z,12.5
2022-10-01T07:44:34.712Z,12.6
2022-10-01T07:45:34.786Z,12.6
2022-10-01T07:46:34.971Z,12.6
2022-10-01T07:47:34.719Z,12.6
2022-10-01T07:48:34.706Z,12.6
2022-10-01T07:49:34.696Z,12.6
2022-10-01T07:50:34.719Z,12.6
2022-10-01T07:51:35.120Z,12.6
2022-10-01T07:52:34.703Z,12.7
2022-10-01T07:53:34.889Z,12.7
2022-10-01T07:56:28.869Z,12.9
2022-10-01T07:57:26.382Z,12.9
2022-10-01T07:58:26.373Z,12.9
2022-10-01T07:59:26.379Z,12.8
2022-10-01T08:00:26.382Z,12.9
2022-10-01T08:01:26.479Z,12.8
2022-10-01T08:02:26.470Z,12.9
2022-10-01T08:03:26.384Z,12.9
2022-10-01T08:04:26.386Z,12.9
2022-10-01T08:05:26.378Z,13
2022-10-01T08:06:26.374Z,13.1
2022-10-01T08:07:26.379Z,13.1
2022-10-01T08:08:26.378Z,13.1
2022-10-01T08:09:26.406Z,13.2
2022-10-01T08:11:26.378Z,13.1
2022-10-01T08:12:26.608Z,13.1
2022-10-01T08:13:26.376Z,13.2
2022-10-01T08:14:26.380Z,13.3
2022-10-01T08:15:26.376Z,13.5
2022-10-01T08:16:26.458Z,13.5
2022-10-01T08:17:29.445Z,13.6
2022-10-01T08:19:26.380Z,13.8
2022-10-01T08:21:26.376Z,13.9
2022-10-01T08:22:26.382Z,13.8
2022-10-01T08:23:26.388Z,13.9
2022-10-01T08:24:26.393Z,14
2022-10-01T08:25:26.380Z,14.2
2022-10-01T08:27:26.373Z,14.4
2022-10-01T08:28:26.450Z,14.6
2022-10-01T08:30:26.381Z,14.4
2022-10-01T08:31:26.516Z,14.4
2022-10-01T08:32:26.382Z,14.3
2022-10-01T08:33:26.378Z,14.2
2022-10-01T08:34:26.376Z,14.2
2022-10-01T08:35:26.376Z,14.2
2022-10-01T08:36:26.387Z,14.1
2022-10-01T08:37:26.378Z,14.2
2022-10-01T08:38:26.388Z,14.2
2022-10-01T08:39:26.375Z,14.2
2022-10-01T08:41:26.378Z,14.2
2022-10-01T08:42:26.374Z,14.2
2022-10-01T08:43:26.381Z,14.4
2022-10-01T08:44:26.396Z,14.4
2022-10-01T08:45:26.611Z,14.4
2022-10-01T08:46:26.387Z,14.4
2022-10-01T08:47:26.384Z,14.4
2022-10-01T08:49:34.639Z,14.3
2022-10-01T08:51:26.373Z,14.2
2022-10-01T08:52:26.386Z,14.2
2022-10-01T08:53:26.389Z,14.2
2022-10-01T08:54:26.388Z,14.2
2022-10-01T08:55:26.375Z,14.2
2022-10-01T08:56:26.382Z,14.3
2022-10-01T08:58:26.378Z,14.1
2022-10-01T08:59:27.498Z,14
2022-10-01T09:00:26.386Z,14
2022-10-01T09:01:26.448Z,14.1
2022-10-01T09:03:26.383Z,14.1
2022-10-01T09:04:26.429Z,14
2022-10-01T09:06:26.385Z,14.2
2022-10-01T09:07:26.431Z,14.2
2022-10-01T09:08:26.387Z,14.2
2022-10-01T09:09:26.380Z,14.2
2022-10-01T09:10:26.384Z,14.2
2022-10-01T09:13:26.394Z,14.2
2022-10-01T09:16:26.428Z,14.3
2022-10-01T09:17:26.392Z,14.3
2022-10-01T09:18:26.378Z,14.3
2022-10-01T09:20:26.383Z,14.3
2022-10-01T09:21:26.386Z,14.4
2022-10-01T09:23:26.389Z,14.3
2022-10-01T09:24:26.398Z,14.4
2022-10-01T09:25:26.382Z,14.4
2022-10-01T09:26:26.394Z,14.4
2022-10-01T09:34:26.391Z,14.5
2022-10-01T09:37:34.714Z,14.5
2022-10-01T09:38:34.721Z,14.6
2022-10-01T09:39:34.718Z,14.7
2022-10-01T11:05:34.765Z,17
2022-10-01T11:06:35.129Z,17
2022-10-01T11:07:34.736Z,17.1
2022-10-01T11:09:34.741Z,17
2022-10-01T11:10:34.737Z,16.9
2022-10-01T11:11:34.736Z,16.8
2022-10-01T11:12:34.738Z,16.7
2022-10-01T11:13:34.737Z,16.9
2022-10-01T11:14:34.738Z,17
2022-10-01T11:15:34.834Z,17
2022-10-01T11:16:35.070Z,16.9
2022-10-01T11:17:34.738Z,16.8
2022-10-01T11:18:34.771Z,16.9
2022-10-01T11:19:34.734Z,16.8
2022-10-01T12:08:34.746Z,15.5
2022-10-01T12:09:34.743Z,15.4
2022-10-01T12:10:34.675Z,15.3
2022-10-01T12:59:34.755Z,17.6
2022-10-01T13:00:34.789Z,17.8
2022-10-01T13:01:34.799Z,17.9
2022-10-01T13:02:34.757Z,18.1
2022-10-01T13:03:34.824Z,18.1
2022-10-01T13:04:34.759Z,18.2
2022-10-01T13:05:34.765Z,18.3
2022-10-01T13:06:35.051Z,18.3
2022-10-01T13:07:34.758Z,18.3
2022-10-01T13:08:34.812Z,18.4
2022-10-01T13:09:34.760Z,18.4
2022-10-01T13:10:34.783Z,18.5
2022-10-01T13:11:34.762Z,18.6
2022-10-01T13:13:34.784Z,18.8
2022-10-01T14:00:34.770Z,16.9
2022-10-01T14:02:34.797Z,17
2022-10-01T14:03:34.825Z,17
2022-10-01T14:04:34.769Z,17.1
2022-10-01T14:05:34.799Z,17.3
2022-10-01T14:06:35.180Z,17.6
2022-10-01T14:08:34.775Z,17.9
2022-10-01T14:09:34.775Z,18
2022-10-01T14:10:34.769Z,18.2
2022-10-01T14:12:34.786Z,18.5
2022-10-01T14:13:34.778Z,18.6
2022-10-01T14:14:34.770Z,18.5
2022-10-01T14:15:34.889Z,18.6
2022-10-01T15:03:34.855Z,19.3
2022-10-01T15:04:34.838Z,19.2
2022-10-01T15:05:34.788Z,19.4
2022-10-01T15:06:35.073Z,19.3
2022-10-01T15:07:34.825Z,19.4
2022-10-01T15:08:34.793Z,19.4
2022-10-01T15:09:34.798Z,19.5
2022-10-01T15:10:34.783Z,19.6
2022-10-01T15:11:34.790Z,19.6
2022-10-01T15:12:34.790Z,19.5
2022-10-01T15:13:34.793Z,19.6
2022-10-01T15:14:34.792Z,19.4
2022-10-01T15:15:34.789Z,19.4
2022-10-01T15:16:35.131Z,19.2
2022-10-01T15:17:34.787Z,19.2
2022-10-01T15:18:34.988Z,18.9
2022-10-01T15:23:35.895Z,19.2
2022-10-01T15:32:14.769Z,19.2
2022-10-01T15:34:05.947Z,19.1
2022-10-01T15:43:06.160Z,18.7
2022-10-01T15:43:16.435Z,18.7
2022-10-01T15:43:47.293Z,18.7
2022-10-01T15:44:59.255Z,19.1
2022-10-01T16:16:26.612Z,18.3
2022-10-01T16:25:34.817Z,17.9
2022-10-01T16:26:35.083Z,17.9
2022-10-01T16:27:34.814Z,17.8
2022-10-01T16:28:34.811Z,17.6
2022-10-01T16:29:34.843Z,17.5
2022-10-01T16:30:34.821Z,17.5
2022-10-01T16:31:34.966Z,17.5
2022-10-01T16:32:34.838Z,17.5
2022-10-01T16:33:34.809Z,17.5
2022-10-01T16:34:34.809Z,17.6
2022-10-01T16:35:34.817Z,17.5
2022-10-01T16:36:35.125Z,17.5
2022-10-01T16:37:34.819Z,17.5
2022-10-01T16:38:34.864Z,17.6
2022-10-01T16:39:34.825Z,17.5
2022-10-01T16:40:34.841Z,17.6
2022-10-01T16:41:35.003Z,17.4
2022-10-01T17:31:34.929Z,16.6
2022-10-01T17:32:34.833Z,16.6
2022-10-01T17:33:34.839Z,16.6
2022-10-01T17:35:34.832Z,16.5
2022-10-01T17:36:35.111Z,16.4
2022-10-01T17:37:34.836Z,16.4
2022-10-01T17:38:34.844Z,16.4
2022-10-01T17:39:34.835Z,16.3
2022-10-01T17:40:34.826Z,16.5
2022-10-01T17:41:34.837Z,16.4
2022-10-01T17:42:34.899Z,16.5
2022-10-01T17:43:34.876Z,16.4
2022-10-01T17:45:34.884Z,16.4
2022-10-01T17:46:35.305Z,16.3
2022-10-01T18:37:37.760Z,15.8
2022-10-01T18:38:34.852Z,15.8
2022-10-01T18:39:34.844Z,15.9
2022-10-01T18:40:34.776Z,15.8
2022-10-01T19:27:34.838Z,15.2
2022-10-01T19:28:34.850Z,15.1
2022-10-01T19:29:34.857Z,15.1
2022-10-01T19:30:34.952Z,15.1
2022-10-01T19:31:34.921Z,15.1
2022-10-01T19:32:34.870Z,15
2022-10-01T19:33:34.841Z,15.1
2022-10-01T19:34:34.856Z,15
2022-10-01T19:35:34.853Z,14.9
2022-10-01T19:36:34.925Z,14.9
2022-10-01T19:37:34.924Z,14.9
2022-10-01T19:38:34.854Z,14.9
2022-10-01T19:39:34.853Z,14.8
2022-10-01T19:40:34.862Z,14.9
2022-10-01T19:41:34.858Z,14.6
2022-10-01T19:42:34.855Z,14.7
2022-10-01T19:43:35.060Z,14.8
2022-10-01T20:33:34.865Z,14.3
2022-10-01T20:34:34.858Z,14.4
2022-10-01T20:35:34.879Z,14.4
2022-10-01T22:46:26.562Z,13.2
2022-10-01T22:49:34.891Z,13.1
2022-10-01T22:50:34.897Z,13
2022-10-01T22:51:34.932Z,13.1
2022-10-01T22:52:34.891Z,13
2022-10-01T22:53:34.815Z,12.9
2022-10-01T23:37:26.571Z,13.1
2022-10-01T23:41:34.896Z,13
2022-10-01T23:42:34.896Z,12.9
2022-10-01T23:43:34.896Z,12.9
2022-10-01T23:44:34.899Z,13
2022-10-01T23:45:34.948Z,13
2022-10-01T23:46:35.228Z,13
2022-10-01T23:47:34.919Z,13.1
2022-10-01T23:48:34.901Z,13.1
2022-10-01T23:49:34.895Z,13.2
2022-10-01T23:50:34.904Z,13.1
2022-10-01T23:51:34.889Z,13
2022-10-01T23:52:34.898Z,13.1
2022-10-01T23:53:34.924Z,13.1
2022-10-01T23:54:34.902Z,13.2
2022-10-01T23:55:34.902Z,13.1
2022-10-01T23:56:35.177Z,13
2022-10-01T23:57:35.089Z,13.1
2022-10-01T23:59:54.880Z,13.1
